Time;durP1;ratioP1;P1;durP2;ratioP2;P2;SDS_P1;SDS_P2;PMS_P1;PMS_P2;Temp;Humidity;BMP_temperature;BMP_pressure;BME280_temperature;BME280_humidity;BME280_pressure;Samples;Min_cycle;Max_cycle;Signal;HPM_P1;HPM_P2
2021/10/08 00:00:50;;;;;;;0.65;0.63;;;10.10;99.90;;;;;;5036695;28;20197;-75
2021/10/08 00:03:15;;;;;;;0.73;0.73;;;10.00;99.90;;;;;;5040382;28;20588;-75
2021/10/08 00:05:42;;;;;;;0.30;0.30;;;10.00;99.90;;;;;;5074175;28;20213;-75
2021/10/08 00:08:07;;;;;;;0.50;0.50;;;9.90;99.90;;;;;;5057738;28;20200;-76
2021/10/08 00:10:35;;;;;;;0.50;0.50;;;9.90;99.90;;;;;;5074069;28;20207;-76
2021/10/08 00:13:00;;;;;;;0.52;0.52;;;9.80;99.90;;;;;;5072803;28;20215;-76
2021/10/08 00:15:26;;;;;;;0.60;0.60;;;9.70;99.90;;;;;;5072734;28;20563;-75
2021/10/08 00:17:52;;;;;;;0.60;0.60;;;9.70;99.90;;;;;;5072522;28;20208;-75
2021/10/08 00:20:19;;;;;;;1.40;0.90;;;9.60;99.90;;;;;;5052570;28;20208;-75
2021/10/08 00:22:46;;;;;;;0.90;0.90;;;9.60;99.90;;;;;;5068744;28;20238;-75
2021/10/08 00:25:12;;;;;;;0.57;0.57;;;9.50;99.90;;;;;;5072690;28;20201;-76
2021/10/08 00:27:37;;;;;;;1.42;1.33;;;9.50;99.90;;;;;;5055541;28;20209;-75
2021/10/08 00:30:04;;;;;;;0.60;0.60;;;9.50;99.90;;;;;;5072644;28;20271;-75
2021/10/08 00:32:30;;;;;;;0.57;0.57;;;9.40;99.90;;;;;;5073622;28;20209;-75
2021/10/08 00:34:55;;;;;;;0.60;0.60;;;9.40;99.90;;;;;;5052508;28;20212;-75
2021/10/08 00:37:21;;;;;;;1.13;1.02;;;9.30;99.90;;;;;;5072080;28;20209;-75
2021/10/08 00:39:47;;;;;;;0.70;0.70;;;9.30;99.90;;;;;;5073895;28;20195;-75
2021/10/08 00:42:19;;;;;;;0.80;0.80;;;9.20;99.90;;;;;;5072344;28;20250;-75
2021/10/08 00:44:45;;;;;;;0.55;0.55;;;9.20;99.90;;;;;;5073554;28;20193;-75
2021/10/08 00:47:13;;;;;;;1.25;1.15;;;9.20;99.90;;;;;;5073463;28;20205;-75
2021/10/08 00:49:39;;;;;;;1.08;1.08;;;9.20;99.90;;;;;;5055395;28;20211;-75
2021/10/08 00:52:04;;;;;;;0.82;0.82;;;9.10;99.90;;;;;;5072070;28;20251;-73
2021/10/08 00:54:30;;;;;;;0.95;0.95;;;9.10;99.90;;;;;;5071963;28;20213;-74
2021/10/08 00:56:58;;;;;;;0.73;0.73;;;9.00;99.90;;;;;;5053970;28;20209;-73
2021/10/08 00:59:28;;;;;;;0.70;0.70;;;9.00;99.90;;;;;;5054001;28;20248;-76
2021/10/08 01:01:55;;;;;;;0.80;0.80;;;8.90;99.90;;;;;;5064469;22;20197;-73
2021/10/08 01:04:24;;;;;;;0.60;0.60;;;8.90;99.90;;;;;;5026431;28;20210;-73
2021/10/08 01:06:49;;;;;;;0.80;0.80;;;8.90;99.90;;;;;;4996129;28;20213;-72
2021/10/08 01:09:15;;;;;;;0.60;0.60;;;8.80;99.90;;;;;;5014364;28;20277;-73
2021/10/08 01:11:43;;;;;;;0.90;0.90;;;8.80;99.90;;;;;;5012455;28;20210;-73
2021/10/08 01:14:09;;;;;;;0.60;0.60;;;8.70;99.90;;;;;;5027540;28;20228;-73
2021/10/08 01:16:35;;;;;;;0.68;0.68;;;8.70;99.90;;;;;;5012120;28;20213;-72
2021/10/08 01:19:01;;;;;;;1.15;1.13;;;8.80;99.90;;;;;;5015645;28;20214;-73
2021/10/08 01:21:27;;;;;;;1.05;0.90;;;8.80;99.90;;;;;;5025220;28;20224;-72
2021/10/08 01:23:53;;;;;;;0.60;0.60;;;8.70;99.90;;;;;;5001416;28;20207;-73
2021/10/08 01:26:19;;;;;;;1.85;1.65;;;8.70;99.90;;;;;;5012343;28;20246;-72
2021/10/08 01:28:45;;;;;;;0.70;0.70;;;8.70;99.90;;;;;;5012465;28;20542;-73
2021/10/08 01:31:10;;;;;;;0.75;0.75;;;8.70;99.90;;;;;;5003378;28;20248;-72
2021/10/08 01:33:36;;;;;;;0.70;0.70;;;8.70;99.90;;;;;;5020856;28;20206;-73
2021/10/08 01:36:02;;;;;;;0.60;0.60;;;8.70;99.90;;;;;;4994527;28;20199;-72
2021/10/08 01:38:28;;;;;;;1.83;1.02;;;8.70;99.90;;;;;;5013277;28;20238;-73
2021/10/08 01:40:53;;;;;;;4.78;1.70;;;8.60;99.90;;;;;;5012173;28;20203;-72
2021/10/08 01:43:19;;;;;;;1.42;1.15;;;8.60;99.90;;;;;;5011850;28;20697;-73
2021/10/08 01:45:44;;;;;;;0.93;0.90;;;8.60;99.90;;;;;;5012111;28;20672;-72
2021/10/08 01:48:10;;;;;;;0.90;0.90;;;8.60;99.90;;;;;;5011769;28;20836;-74
2021/10/08 01:50:36;;;;;;;0.90;0.90;;;8.60;99.90;;;;;;5012204;28;20206;-73
2021/10/08 01:53:02;;;;;;;0.70;0.70;;;8.50;99.90;;;;;;5011003;28;20297;-73
2021/10/08 01:55:27;;;;;;;2.75;1.67;;;8.50;99.90;;;;;;5013164;28;20215;-73
2021/10/08 01:57:53;;;;;;;0.95;0.95;;;8.40;99.90;;;;;;5030002;28;20217;-73
2021/10/08 02:00:19;;;;;;;0.90;0.90;;;8.30;99.90;;;;;;5013058;28;20198;-73
2021/10/08 02:02:44;;;;;;;1.88;1.02;;;8.30;99.90;;;;;;5024747;28;20634;-73
2021/10/08 02:05:11;;;;;;;0.50;0.50;;;8.30;99.90;;;;;;5014219;28;20245;-73
2021/10/08 02:07:36;;;;;;;0.77;0.77;;;8.20;99.90;;;;;;4995310;28;20214;-72
2021/10/08 02:10:04;;;;;;;0.80;0.80;;;8.20;99.90;;;;;;5012934;28;20202;-73
2021/10/08 02:12:29;;;;;;;1.83;1.70;;;8.20;99.90;;;;;;5011420;28;20211;-73
2021/10/08 02:14:55;;;;;;;1.48;1.17;;;8.20;99.90;;;;;;5004557;28;20206;-73
2021/10/08 02:17:21;;;;;;;0.88;0.88;;;8.30;99.90;;;;;;5019493;28;20269;-73
2021/10/08 02:19:46;;;;;;;1.20;1.10;;;8.30;99.90;;;;;;5011330;28;20203;-73
2021/10/08 02:22:12;;;;;;;0.60;0.60;;;8.30;99.90;;;;;;4994914;28;20310;-73
2021/10/08 02:24:38;;;;;;;0.90;0.85;;;8.30;99.90;;;;;;5010922;28;20218;-72
2021/10/08 02:27:03;;;;;;;3.30;1.23;;;8.40;99.90;;;;;;5016372;28;20205;-72
2021/10/08 02:29:29;;;;;;;0.80;0.80;;;8.50;99.90;;;;;;5024944;28;20650;-73
2021/10/08 02:31:55;;;;;;;1.00;1.00;;;8.60;99.90;;;;;;5012335;28;20210;-72
2021/10/08 02:34:21;;;;;;;1.25;1.23;;;8.70;99.90;;;;;;4995878;28;20205;-73
2021/10/08 02:36:47;;;;;;;1.00;1.00;;;8.90;99.90;;;;;;5028281;28;20211;-73
2021/10/08 02:39:12;;;;;;;0.95;0.95;;;8.90;99.90;;;;;;5011232;28;20281;-73
2021/10/08 02:41:38;;;;;;;0.50;0.50;;;9.00;99.90;;;;;;4993773;28;20187;-72
2021/10/08 02:44:04;;;;;;;0.60;0.60;;;9.10;99.90;;;;;;4994198;28;20201;-73
2021/10/08 02:46:30;;;;;;;0.95;0.95;;;9.20;99.90;;;;;;5010740;28;20252;-72
2021/10/08 02:48:56;;;;;;;1.15;1.00;;;9.50;99.90;;;;;;5011446;28;20669;-73
2021/10/08 02:51:21;;;;;;;1.50;1.40;;;9.70;99.90;;;;;;5012209;28;20552;-72
2021/10/08 02:53:47;;;;;;;0.80;0.80;;;9.70;99.90;;;;;;5011004;28;20235;-73
2021/10/08 02:56:12;;;;;;;1.13;1.08;;;9.80;99.90;;;;;;4994751;28;20209;-72
2021/10/08 02:58:38;;;;;;;1.05;1.02;;;9.80;99.90;;;;;;5010699;28;20234;-72
2021/10/08 03:01:04;;;;;;;0.98;0.98;;;10.00;99.90;;;;;;5010639;28;20202;-73
2021/10/08 03:03:30;;;;;;;1.40;1.00;;;10.10;99.90;;;;;;5000895;28;20695;-72
2021/10/08 03:05:56;;;;;;;1.15;0.80;;;10.20;99.90;;;;;;4986725;28;20199;-72
2021/10/08 03:08:21;;;;;;;1.55;1.35;;;10.20;99.90;;;;;;4985054;28;20218;-73
2021/10/08 03:10:47;;;;;;;1.15;1.05;;;10.20;99.90;;;;;;4999667;28;20226;-72
2021/10/08 03:13:13;;;;;;;0.60;0.60;;;10.20;99.90;;;;;;4989399;28;20217;-73
2021/10/08 03:15:38;;;;;;;1.75;0.85;;;10.30;99.90;;;;;;4995221;28;20583;-73
2021/10/08 03:18:04;;;;;;;0.95;0.95;;;10.30;99.90;;;;;;4995169;28;20629;-73
2021/10/08 03:20:32;;;;;;;1.90;1.40;;;10.40;99.90;;;;;;4994983;28;20534;-73
2021/10/08 03:22:57;;;;;;;1.92;1.10;;;10.40;99.90;;;;;;4978499;28;20206;-73
2021/10/08 03:25:23;;;;;;;1.65;1.48;;;10.40;99.90;;;;;;4993603;28;20678;-73
2021/10/08 03:27:49;;;;;;;1.38;1.27;;;10.40;99.90;;;;;;4993953;28;20286;-73
2021/10/08 03:30:15;;;;;;;0.70;0.70;;;10.40;99.90;;;;;;4994544;28;20199;-73
2021/10/08 03:32:42;;;;;;;2.63;1.52;;;10.40;99.90;;;;;;4996097;28;20302;-73
2021/10/08 03:35:08;;;;;;;0.60;0.60;;;10.50;99.90;;;;;;4994474;28;20293;-72
2021/10/08 03:40:24;;;;;;;1.08;1.08;;;10.50;99.90;;;;;;4994718;28;20207;-73
2021/10/08 03:42:50;;;;;;;0.68;0.68;;;10.50;99.90;;;;;;4995400;28;20207;-72
2021/10/08 03:45:16;;;;;;;2.20;2.05;;;10.50;99.90;;;;;;4995695;28;20701;-73
2021/10/08 03:50:24;;;;;;;1.42;1.35;;;10.50;99.90;;;;;;4992990;28;20573;-73
2021/10/08 03:52:50;;;;;;;1.05;1.05;;;10.50;99.90;;;;;;4994618;28;20258;-73
2021/10/08 03:55:16;;;;;;;1.63;1.25;;;10.50;99.90;;;;;;4976862;28;20211;-73
2021/10/08 03:57:43;;;;;;;1.58;1.25;;;10.50;99.90;;;;;;4994146;28;20216;-73
2021/10/08 04:00:09;;;;;;;1.38;1.27;;;10.60;99.90;;;;;;4992976;28;20242;-73
2021/10/08 04:02:35;;;;;;;1.30;0.90;;;10.60;99.90;;;;;;5011055;28;20229;-74
2021/10/08 04:05:00;;;;;;;1.63;1.52;;;10.60;99.90;;;;;;5020526;28;20206;-73
2021/10/08 04:07:26;;;;;;;1.60;1.40;;;10.50;99.90;;;;;;5013665;28;20211;-73
2021/10/08 04:09:51;;;;;;;1.60;1.50;;;10.50;99.90;;;;;;5013476;28;20207;-73
2021/10/08 04:12:17;;;;;;;8.23;1.92;;;10.50;99.90;;;;;;5014365;28;20294;-72
2021/10/08 04:14:43;;;;;;;0.55;0.55;;;10.50;99.90;;;;;;5013371;28;20211;-72
2021/10/08 04:17:08;;;;;;;1.08;0.98;;;10.50;99.90;;;;;;4995668;28;20305;-74
2021/10/08 04:19:34;;;;;;;1.20;1.08;;;10.50;99.90;;;;;;5015831;28;20237;-73
2021/10/08 04:22:00;;;;;;;0.93;0.93;;;10.50;99.90;;;;;;5028665;28;20273;-73
2021/10/08 04:24:25;;;;;;;0.68;0.68;;;10.50;99.90;;;;;;5014425;28;20221;-73
2021/10/08 04:26:51;;;;;;;1.83;1.42;;;10.60;99.90;;;;;;4997200;28;20693;-74
2021/10/08 04:29:16;;;;;;;6.47;1.20;;;10.60;99.90;;;;;;5012475;28;20221;-72
2021/10/08 04:31:42;;;;;;;1.27;1.20;;;10.60;99.90;;;;;;5009180;28;20204;-75
2021/10/08 04:34:08;;;;;;;0.85;0.85;;;10.60;99.90;;;;;;5032065;28;20584;-74
2021/10/08 04:36:34;;;;;;;1.05;1.05;;;10.60;99.90;;;;;;4995718;28;20763;-73
2021/10/08 04:38:59;;;;;;;1.20;1.15;;;10.60;99.90;;;;;;5013157;28;20206;-74
2021/10/08 04:41:25;;;;;;;1.50;1.27;;;10.60;99.90;;;;;;5013635;28;20249;-74
2021/10/08 04:43:51;;;;;;;0.85;0.80;;;10.60;99.90;;;;;;5014624;28;20217;-73
2021/10/08 04:46:16;;;;;;;0.75;0.75;;;10.70;99.90;;;;;;5014833;28;20282;-73
2021/10/08 04:48:42;;;;;;;2.90;1.40;;;10.70;99.90;;;;;;5013334;28;20647;-73
2021/10/08 04:51:08;;;;;;;1.80;0.98;;;10.70;99.90;;;;;;5003747;28;20225;-73
2021/10/08 04:53:33;;;;;;;1.33;1.27;;;10.70;99.90;;;;;;5020561;28;20230;-74
2021/10/08 04:55:59;;;;;;;0.93;0.93;;;10.70;99.90;;;;;;5014517;28;20278;-73
2021/10/08 04:58:25;;;;;;;1.38;1.27;;;10.70;99.90;;;;;;5013157;28;20287;-74
2021/10/08 05:00:50;;;;;;;0.80;0.80;;;10.70;99.90;;;;;;4996215;28;20207;-73
2021/10/08 05:03:18;;;;;;;1.33;1.23;;;10.70;99.90;;;;;;5001547;28;20238;-73
2021/10/08 05:05:50;;;;;;;1.10;1.00;;;10.80;99.90;;;;;;4992259;28;20655;-73
2021/10/08 05:08:16;;;;;;;0.75;0.75;;;10.80;99.90;;;;;;4993163;28;20204;-72
2021/10/08 05:10:43;;;;;;;2.90;1.10;;;10.80;99.90;;;;;;4993160;28;20207;-74
2021/10/08 05:13:09;;;;;;;2.25;1.80;;;10.70;99.90;;;;;;4993498;28;20760;-73
2021/10/08 05:15:34;;;;;;;1.52;1.20;;;10.80;99.90;;;;;;4992984;28;20646;-73
2021/10/08 05:18:00;;;;;;;0.50;0.50;;;10.80;99.90;;;;;;4991799;28;20597;-73
2021/10/08 05:20:26;;;;;;;1.00;0.88;;;10.80;99.90;;;;;;5010995;28;20515;-72
2021/10/08 05:22:51;;;;;;;2.42;1.38;;;10.80;99.90;;;;;;4992404;28;20194;-73
2021/10/08 05:25:17;;;;;;;0.70;0.70;;;10.80;99.90;;;;;;4974923;28;20258;-74
2021/10/08 05:27:43;;;;;;;0.80;0.80;;;10.80;99.90;;;;;;5008853;28;20206;-73
2021/10/08 05:30:10;;;;;;;0.85;0.85;;;10.80;99.90;;;;;;4992990;28;20294;-73
2021/10/08 05:32:36;;;;;;;0.77;0.77;;;10.90;99.90;;;;;;4991562;28;20211;-73
2021/10/08 05:35:02;;;;;;;1.08;0.90;;;10.90;99.90;;;;;;4992910;28;20254;-73
2021/10/08 05:37:30;;;;;;;1.05;0.98;;;10.90;99.90;;;;;;4992825;28;20298;-73
2021/10/08 05:39:55;;;;;;;2.22;1.70;;;10.90;99.90;;;;;;4975433;28;20298;-73
2021/10/08 05:42:21;;;;;;;1.27;1.17;;;10.90;99.90;;;;;;4975198;28;20299;-72
2021/10/08 05:44:47;;;;;;;0.70;0.70;;;10.90;99.90;;;;;;5000178;28;20206;-73
2021/10/08 05:47:12;;;;;;;7.78;2.50;;;11.00;99.90;;;;;;5001425;28;20250;-73
2021/10/08 05:49:39;;;;;;;0.95;0.90;;;11.00;99.90;;;;;;4991786;28;20222;-74
2021/10/08 05:52:05;;;;;;;1.40;1.10;;;11.00;99.90;;;;;;4992435;28;20199;-73
2021/10/08 05:54:30;;;;;;;2.17;1.13;;;11.10;99.90;;;;;;4994729;28;20211;-73
2021/10/08 05:56:56;;;;;;;0.80;0.80;;;11.10;99.90;;;;;;5003370;28;20610;-74
2021/10/08 05:59:22;;;;;;;0.60;0.60;;;11.10;99.90;;;;;;4991094;28;20282;-74
2021/10/08 06:01:47;;;;;;;1.48;1.38;;;11.10;99.90;;;;;;4972690;28;20357;-74
2021/10/08 06:04:13;;;;;;;0.52;0.52;;;11.10;99.90;;;;;;4982136;28;20269;-73
2021/10/08 06:06:39;;;;;;;1.10;1.05;;;11.20;99.90;;;;;;4973426;28;20606;-72
2021/10/08 06:09:04;;;;;;;1.88;1.17;;;11.20;99.90;;;;;;4975292;28;20196;-73
2021/10/08 06:11:30;;;;;;;1.77;1.65;;;11.30;99.90;;;;;;4992510;28;20729;-73
2021/10/08 06:13:56;;;;;;;1.20;1.05;;;11.30;99.90;;;;;;4976853;28;20567;-73
2021/10/08 06:16:22;;;;;;;0.77;0.73;;;11.30;99.90;;;;;;5008516;28;20633;-74
2021/10/08 06:18:48;;;;;;;0.90;0.90;;;11.40;99.90;;;;;;4971747;28;20251;-74
2021/10/08 06:21:14;;;;;;;0.60;0.60;;;11.40;99.90;;;;;;5004611;28;20199;-73
2021/10/08 06:23:39;;;;;;;0.98;0.98;;;11.40;99.90;;;;;;4994276;28;20211;-73
2021/10/08 06:26:05;;;;;;;1.20;1.10;;;11.50;99.90;;;;;;4991943;28;20274;-72
2021/10/08 06:28:31;;;;;;;1.00;1.00;;;11.50;99.90;;;;;;4975474;28;20589;-73
2021/10/08 06:30:57;;;;;;;0.80;0.80;;;11.50;99.90;;;;;;4991845;28;20200;-73
2021/10/08 06:33:23;;;;;;;0.70;0.70;;;11.50;99.90;;;;;;4991756;28;20693;-73
2021/10/08 06:35:49;;;;;;;0.95;0.90;;;11.50;99.90;;;;;;4975235;28;20207;-73
2021/10/08 06:38:14;;;;;;;0.93;0.93;;;11.60;99.90;;;;;;4974667;28;20211;-74
2021/10/08 06:40:41;;;;;;;0.63;0.63;;;11.70;99.90;;;;;;4990428;28;20203;-73
2021/10/08 06:43:07;;;;;;;15.48;2.42;;;11.80;99.90;;;;;;4990892;28;20717;-73
2021/10/08 06:45:34;;;;;;;1.65;1.40;;;11.80;99.90;;;;;;4990463;28;20199;-74
2021/10/08 06:48:00;;;;;;;1.95;1.33;;;11.90;99.90;;;;;;4990859;28;20207;-74
2021/10/08 06:50:26;;;;;;;1.77;1.63;;;12.00;99.90;;;;;;4972877;28;20261;-74
2021/10/08 06:52:51;;;;;;;0.60;0.60;;;12.10;99.90;;;;;;4992935;28;20684;-73
2021/10/08 06:55:17;;;;;;;1.35;1.25;;;12.10;99.90;;;;;;4991363;28;20207;-74
2021/10/08 06:57:43;;;;;;;0.75;0.75;;;12.10;99.90;;;;;;5008304;28;20207;-74
2021/10/08 07:00:09;;;;;;;0.70;0.70;;;12.10;99.90;;;;;;4990597;28;20330;-73
2021/10/08 07:02:52;;;;;;;1.20;1.10;;;12.10;99.90;;;;;;4990313;28;20231;-73
2021/10/08 07:05:19;;;;;;;8.05;2.38;;;12.20;99.90;;;;;;4973145;28;20199;-74
2021/10/08 07:07:46;;;;;;;1.10;1.02;;;12.30;99.90;;;;;;4990992;28;20318;-75
2021/10/08 07:10:12;;;;;;;0.88;0.88;;;12.50;99.90;;;;;;4974184;28;20219;-74
2021/10/08 07:12:38;;;;;;;0.77;0.77;;;12.60;99.90;;;;;;4992950;28;20682;-72
2021/10/08 07:15:07;;;;;;;0.75;0.75;;;12.60;99.90;;;;;;4974251;28;20250;-73
2021/10/08 07:17:38;;;;;;;0.93;0.90;;;12.60;99.90;;;;;;4972817;28;20378;-74
2021/10/08 07:20:04;;;;;;;1.17;1.02;;;12.60;99.90;;;;;;4973952;28;20210;-72
2021/10/08 07:22:30;;;;;;;1.27;1.20;;;12.50;99.90;;;;;;4991357;28;20207;-72
2021/10/08 07:24:56;;;;;;;0.80;0.80;;;12.50;99.90;;;;;;4991600;28;20263;-72
2021/10/08 07:27:22;;;;;;;1.10;1.00;;;12.50;99.90;;;;;;4991361;28;20211;-73
2021/10/08 07:29:48;;;;;;;0.60;0.60;;;12.50;99.90;;;;;;4991266;28;20199;-73
2021/10/08 07:32:14;;;;;;;1.73;1.38;;;12.50;99.90;;;;;;5000515;28;20206;-73
2021/10/08 07:34:40;;;;;;;0.98;0.80;;;12.50;99.90;;;;;;4998073;28;20681;-73
2021/10/08 07:37:06;;;;;;;1.45;0.98;;;12.50;99.90;;;;;;4973903;28;20581;-73
2021/10/08 07:39:32;;;;;;;0.68;0.68;;;12.60;99.90;;;;;;4991175;28;20196;-73
2021/10/08 07:41:57;;;;;;;2.05;1.35;;;12.60;99.90;;;;;;4973774;28;20302;-73
2021/10/08 07:44:23;;;;;;;0.90;0.90;;;12.70;99.90;;;;;;4994569;28;20252;-73
2021/10/08 07:46:51;;;;;;;0.93;0.93;;;12.70;99.90;;;;;;4985353;28;20207;-72
2021/10/08 07:49:16;;;;;;;1.05;0.95;;;12.80;99.90;;;;;;4977622;28;20214;-72
2021/10/08 07:51:42;;;;;;;1.38;1.27;;;12.80;99.90;;;;;;4976890;28;20604;-73
2021/10/08 07:54:08;;;;;;;0.60;0.60;;;12.90;99.90;;;;;;4993782;28;20207;-72
2021/10/08 07:56:34;;;;;;;0.85;0.85;;;12.90;99.90;;;;;;4989541;28;20208;-73
2021/10/08 07:59:03;;;;;;;0.52;0.52;;;13.00;99.90;;;;;;4971583;28;20207;-73
2021/10/08 08:01:29;;;;;;;2.50;1.95;;;13.00;99.90;;;;;;4988107;28;20319;-74
2021/10/08 08:03:55;;;;;;;1.60;1.02;;;13.10;99.90;;;;;;5003533;28;20322;-76
2021/10/08 08:06:21;;;;;;;1.15;1.08;;;13.10;99.90;;;;;;5009326;28;20206;-73
2021/10/08 08:08:47;;;;;;;0.80;0.80;;;13.20;99.90;;;;;;5011386;28;20225;-75
2021/10/08 08:11:13;;;;;;;0.60;0.60;;;13.30;99.90;;;;;;5004800;28;20592;-73
2021/10/08 08:13:38;;;;;;;2.45;1.25;;;13.50;99.90;;;;;;5003473;28;20218;-73
2021/10/08 08:16:04;;;;;;;0.82;0.82;;;13.50;99.90;;;;;;5010948;28;20656;-74
2021/10/08 08:18:30;;;;;;;1.10;1.00;;;13.70;99.90;;;;;;5016296;28;20693;-73
2021/10/08 08:20:56;;;;;;;1.55;1.45;;;13.90;99.90;;;;;;5014669;28;20210;-73
2021/10/08 08:23:21;;;;;;;0.70;0.70;;;14.20;99.90;;;;;;5014456;28;20223;-74
2021/10/08 08:25:47;;;;;;;1.08;1.05;;;14.50;99.90;;;;;;5013016;28;20206;-73
2021/10/08 08:28:13;;;;;;;0.60;0.60;;;14.40;99.90;;;;;;5014591;28;20203;-73
2021/10/08 08:30:41;;;;;;;22.38;0.90;;;14.60;99.90;;;;;;5008547;28;20221;-73
2021/10/08 08:33:07;;;;;;;0.80;0.80;;;14.70;99.90;;;;;;4997794;28;20209;-75
2021/10/08 08:35:33;;;;;;;0.70;0.70;;;14.70;99.90;;;;;;4982360;28;20206;-74
2021/10/08 08:37:59;;;;;;;0.50;0.50;;;14.70;99.90;;;;;;4994220;28;20224;-72
2021/10/08 08:40:28;;;;;;;0.77;0.77;;;14.60;99.90;;;;;;4977314;28;20669;-74
2021/10/08 08:42:54;;;;;;;1.23;1.13;;;15.00;99.90;;;;;;4984559;28;20618;-71
2021/10/08 08:45:20;;;;;;;0.77;0.77;;;15.60;99.90;;;;;;5004774;28;20199;-72
2021/10/08 08:48:00;;;;;;;0.50;0.50;;;15.70;99.90;;;;;;5002050;28;20720;-74
2021/10/08 08:50:28;;;;;;;0.55;0.55;;;16.30;99.90;;;;;;5002214;28;20264;-72
2021/10/08 08:52:54;;;;;;;1.38;0.73;;;15.90;99.90;;;;;;5003968;28;20235;-73
2021/10/08 08:55:20;;;;;;;0.95;0.93;;;15.70;99.90;;;;;;5003640;28;20211;-73
2021/10/08 08:57:46;;;;;;;0.50;0.50;;;15.60;99.90;;;;;;5004859;28;20218;-73
2021/10/08 09:00:13;;;;;;;0.57;0.57;;;15.50;99.90;;;;;;5005534;28;20700;-73
2021/10/08 09:02:42;;;;;;;0.40;0.40;;;15.50;99.90;;;;;;5013290;28;20223;-74
2021/10/08 09:05:25;;;;;;;1.17;0.95;;;15.50;99.90;;;;;;5014333;28;20203;-73
2021/10/08 09:07:55;;;;;;;0.73;0.73;;;15.30;99.90;;;;;;5012596;28;20256;-73
2021/10/08 09:10:24;;;;;;;0.50;0.50;;;15.00;99.90;;;;;;5013559;28;20265;-74
2021/10/08 09:12:56;;;;;;;0.75;0.73;;;14.90;99.90;;;;;;5014408;28;20306;-73
2021/10/08 09:15:23;;;;;;;10.25;1.40;;;14.70;99.90;;;;;;5013157;28;20207;-74
2021/10/08 09:17:49;;;;;;;1.73;1.27;;;14.70;99.90;;;;;;5011111;28;20678;-73
2021/10/08 09:20:18;;;;;;;3.78;1.33;;;14.60;99.90;;;;;;5015739;28;20206;-74
2021/10/08 09:22:49;;;;;;;0.77;0.77;;;14.60;99.90;;;;;;5012662;28;20207;-74
2021/10/08 09:25:20;;;;;;;3.80;1.58;;;14.60;99.90;;;;;;5013276;28;20203;-74
2021/10/08 09:27:56;;;;;;;0.40;0.40;;;14.50;99.90;;;;;;5013312;28;20257;-74
2021/10/08 09:30:33;;;;;;;1.52;0.98;;;14.40;99.90;;;;;;5012851;28;20202;-75
2021/10/08 09:32:59;;;;;;;0.40;0.40;;;14.30;99.90;;;;;;5007793;28;20244;-73
2021/10/08 09:35:26;;;;;;;0.85;0.70;;;14.30;99.90;;;;;;5016790;28;20685;-73
2021/10/08 09:38:08;;;;;;;0.73;0.73;;;14.20;99.90;;;;;;5013243;28;20241;-73
2021/10/08 09:40:37;;;;;;;0.60;0.60;;;14.20;99.90;;;;;;5007313;28;20292;-74
2021/10/08 09:43:08;;;;;;;0.60;0.60;;;14.20;99.90;;;;;;5017699;28;20211;-73
2021/10/08 09:45:33;;;;;;;1.33;1.23;;;14.20;99.90;;;;;;5011643;28;20207;-73
2021/10/08 09:47:59;;;;;;;0.68;0.68;;;14.20;99.90;;;;;;5005197;28;20210;-74
2021/10/08 09:50:25;;;;;;;0.50;0.50;;;14.30;99.90;;;;;;5029077;28;20248;-74
2021/10/08 09:52:52;;;;;;;0.52;0.52;;;14.40;99.90;;;;;;5024896;28;20222;-73
2021/10/08 09:55:18;;;;;;;0.65;0.65;;;14.40;99.90;;;;;;5004413;28;20210;-74
2021/10/08 09:57:50;;;;;;;0.82;0.80;;;14.50;99.90;;;;;;5011244;28;20236;-73
2021/10/08 10:00:37;;;;;;;0.98;0.90;;;14.40;99.90;;;;;;5015902;28;20205;-74
2021/10/08 10:03:04;;;;;;;0.50;0.50;;;14.50;99.90;;;;;;4993855;28;20211;-73
2021/10/08 10:05:30;;;;;;;0.52;0.52;;;14.50;99.90;;;;;;5009032;28;20646;-73
2021/10/08 10:07:57;;;;;;;0.50;0.50;;;14.70;99.90;;;;;;5008996;28;20207;-73
2021/10/08 10:10:25;;;;;;;0.60;0.60;;;14.80;99.90;;;;;;5007749;28;20234;-73
2021/10/08 10:12:51;;;;;;;0.82;0.82;;;15.00;99.90;;;;;;5007716;28;20268;-73
2021/10/08 10:15:18;;;;;;;0.57;0.57;;;15.00;99.90;;;;;;4991459;28;20644;-73
2021/10/08 10:17:44;;;;;;;1.05;0.70;;;15.20;99.90;;;;;;5009155;28;20578;-74
2021/10/08 10:20:11;;;;;;;0.68;0.68;;;15.30;99.90;;;;;;4989146;28;20208;-74
2021/10/08 10:22:38;;;;;;;0.70;0.70;;;15.20;99.90;;;;;;4994472;28;20210;-73
2021/10/08 10:25:05;;;;;;;0.40;0.40;;;15.30;99.90;;;;;;5009103;28;20237;-73
2021/10/08 10:27:31;;;;;;;0.73;0.73;;;15.40;99.90;;;;;;5007394;28;20813;-73
2021/10/08 10:30:00;;;;;;;0.50;0.50;;;15.40;99.90;;;;;;5007903;28;20207;-73
2021/10/08 10:32:26;;;;;;;0.50;0.50;;;15.50;99.90;;;;;;5008472;28;20229;-74
2021/10/08 10:34:52;;;;;;;0.88;0.85;;;15.60;99.90;;;;;;5009912;28;20199;-73
2021/10/08 10:37:38;;;;;;;1.48;0.80;;;15.80;99.90;;;;;;4991860;28;20237;-74
2021/10/08 10:40:19;;;;;;;4.13;1.33;;;15.80;99.90;;;;;;5009509;28;20624;-74
2021/10/08 10:42:45;;;;;;;0.65;0.65;;;15.90;99.90;;;;;;4976080;28;20207;-74
2021/10/08 10:45:18;;;;;;;0.40;0.40;;;16.00;99.90;;;;;;5008224;28;20199;-74
2021/10/08 10:47:46;;;;;;;2.15;1.17;;;15.90;99.90;;;;;;5008499;28;20222;-74
2021/10/08 10:51:09;;;;;;;0.50;0.50;;;15.80;99.90;;;;;;5009025;28;20591;-73
2021/10/08 10:53:07;;;;;;;0.50;0.50;;;15.80;99.90;;;;;;4973009;28;20672;-74
2021/10/08 10:55:34;;;;;;;0.60;0.60;;;15.80;99.90;;;;;;5003875;28;20313;-74
2021/10/08 10:58:07;;;;;;;0.82;0.82;;;15.60;99.90;;;;;;5008866;28;20293;-74
2021/10/08 11:00:41;;;;;;;0.45;0.45;;;15.40;99.90;;;;;;4989986;28;20566;-75
2021/10/08 11:03:09;;;;;;;0.50;0.50;;;15.20;99.90;;;;;;5005592;28;20226;-75
2021/10/08 11:05:38;;;;;;;0.57;0.57;;;15.10;99.90;;;;;;4991392;28;20222;-74
2021/10/08 11:08:06;;;;;;;1.23;1.15;;;15.00;99.90;;;;;;5009787;28;20199;-75
2021/10/08 11:10:33;;;;;;;0.50;0.50;;;15.00;99.90;;;;;;5000650;28;20211;-74
2021/10/08 11:13:31;;;;;;;0.50;0.50;;;14.90;99.90;;;;;;5006984;28;20199;-75
2021/10/08 11:16:07;;;;;;;0.68;0.68;;;15.00;99.90;;;;;;4976004;28;20232;-74
2021/10/08 11:18:41;;;;;;;0.70;0.70;;;15.00;99.90;;;;;;4975129;28;20539;-74
2021/10/08 11:21:09;;;;;;;0.50;0.50;;;15.00;99.90;;;;;;4974234;28;20203;-75
2021/10/08 11:23:36;;;;;;;0.80;0.80;;;15.10;99.90;;;;;;5011158;28;20270;-74
2021/10/08 11:26:11;;;;;;;0.50;0.50;;;15.20;99.90;;;;;;4978867;28;20546;-74
2021/10/08 11:28:43;;;;;;;1.42;0.77;;;15.30;99.90;;;;;;5011581;28;20210;-74
2021/10/08 11:31:20;;;;;;;1.27;0.93;;;15.40;99.90;;;;;;4994562;28;20274;-74
2021/10/08 11:33:48;;;;;;;0.60;0.60;;;15.40;99.90;;;;;;5011595;28;20198;-76
2021/10/08 11:36:28;;;;;;;0.73;0.73;;;15.50;99.90;;;;;;4995973;28;20295;-77
2021/10/08 11:39:14;;;;;;;0.65;0.65;;;15.60;99.90;;;;;;5011526;28;20215;-77
2021/10/08 11:41:42;;;;;;;0.85;0.85;;;15.70;99.90;;;;;;4978513;28;20230;-77
2021/10/08 11:44:27;;;;;;;0.40;0.40;;;15.70;99.90;;;;;;4995539;28;20558;-78
2021/10/08 11:47:09;;;;;;;1.05;0.70;;;15.70;99.90;;;;;;4979946;28;20200;-77
2021/10/08 11:52:01;;;;;;;0.70;0.70;;;15.70;99.90;;;;;;4996092;28;20254;-77
2021/10/08 11:54:27;;;;;;;9.93;0.88;;;15.70;99.90;;;;;;4994586;28;20246;-78
2021/10/08 11:57:06;;;;;;;1.35;1.10;;;15.50;99.90;;;;;;5012855;28;20206;-76
2021/10/08 11:59:32;;;;;;;1.42;1.17;;;15.50;99.90;;;;;;4994294;28;20241;-77
2021/10/08 12:02:15;;;;;;;0.65;0.65;;;15.60;99.90;;;;;;4995598;28;20199;-77
2021/10/08 12:04:57;;;;;;;0.60;0.60;;;15.60;99.90;;;;;;4978421;28;20590;-77
2021/10/08 12:07:24;;;;;;;0.70;0.70;;;15.60;99.90;;;;;;4983756;28;20222;-76
2021/10/08 12:10:10;;;;;;;0.82;0.73;;;15.40;99.90;;;;;;5012009;28;20210;-76
2021/10/08 12:12:36;;;;;;;0.50;0.50;;;15.30;99.90;;;;;;4995574;28;20224;-77
2021/10/08 12:15:02;;;;;;;0.70;0.70;;;15.30;99.90;;;;;;4977684;28;20204;-78
2021/10/08 12:17:28;;;;;;;0.40;0.40;;;15.40;99.90;;;;;;4994744;28;20207;-77
2021/10/08 12:19:54;;;;;;;5.60;1.42;;;15.30;99.90;;;;;;4978636;28;20310;-77
2021/10/08 12:22:24;;;;;;;2.63;0.95;;;15.30;99.90;;;;;;4995676;28;20665;-78
2021/10/08 12:24:51;;;;;;;1.35;1.15;;;15.20;99.90;;;;;;4992614;28;20222;-78
2021/10/08 12:27:17;;;;;;;0.60;0.60;;;15.20;99.90;;;;;;4974062;28;20203;-77
2021/10/08 12:29:51;;;;;;;0.70;0.70;;;15.10;99.90;;;;;;4990768;28;20211;-77
2021/10/08 12:32:18;;;;;;;0.45;0.45;;;15.00;99.90;;;;;;4972358;28;20203;-78
2021/10/08 12:34:54;;;;;;;0.77;0.77;;;15.00;99.90;;;;;;4990337;28;20211;-78
2021/10/08 12:37:33;;;;;;;0.70;0.70;;;15.00;99.90;;;;;;4990281;28;20686;-77
2021/10/08 12:40:09;;;;;;;0.95;0.70;;;14.90;99.90;;;;;;4990640;28;20209;-78
2021/10/08 12:42:42;;;;;;;0.77;0.77;;;14.80;99.90;;;;;;4972012;28;20199;-77
2021/10/08 12:45:33;;;;;;;0.52;0.52;;;14.70;99.90;;;;;;4990518;28;20257;-76
2021/10/08 12:48:00;;;;;;;1.17;1.00;;;14.70;99.90;;;;;;4972421;28;20200;-76
2021/10/08 12:50:27;;;;;;;1.55;0.68;;;14.70;99.90;;;;;;4980405;28;20219;-74
2021/10/08 12:52:55;;;;;;;0.50;0.50;;;14.70;99.90;;;;;;4986093;28;20265;-77
2021/10/08 12:55:35;;;;;;;0.60;0.60;;;14.80;99.90;;;;;;4992086;28;20234;-75
2021/10/08 12:58:20;;;;;;;0.88;0.88;;;14.80;99.90;;;;;;4973781;28;20215;-75